createdAt,value
2017-01-02T00:00:24.987Z,1009.84
2017-01-02T00:01:24.970Z,1009.79
2017-01-02T00:02:24.943Z,1009.85
2017-01-02T00:03:24.920Z,1009.84
2017-01-02T00:04:24.895Z,1009.88
2017-01-02T00:05:24.878Z,1009.87
2017-01-02T00:06:24.854Z,1009.9
2017-01-02T00:07:24.830Z,1009.89
2017-01-02T00:08:24.818Z,1009.92
2017-01-02T00:09:24.797Z,1009.91
2017-01-02T00:10:24.762Z,1009.89
2017-01-02T00:11:24.742Z,1009.91
2017-01-02T00:12:24.720Z,1009.91
2017-01-02T00:13:24.695Z,1009.89
2017-01-02T00:14:24.673Z,1009.87
2017-01-02T00:15:24.652Z,1009.87
2017-01-02T00:16:24.627Z,1009.88
2017-01-02T00:17:24.609Z,1009.87
2017-01-02T00:18:24.601Z,1009.91
2017-01-02T00:19:24.560Z,1009.83
2017-01-02T00:20:24.538Z,1009.85
2017-01-02T00:21:24.517Z,1009.83
2017-01-02T00:22:24.494Z,1009.88
2017-01-02T00:23:24.469Z,1009.87
2017-01-02T00:24:24.449Z,1009.88
2017-01-02T00:25:24.424Z,1009.91
2017-01-02T00:26:24.402Z,1009.92
2017-01-02T00:27:24.382Z,1009.93
2017-01-02T00:28:24.357Z,1009.97
2017-01-02T00:29:24.342Z,1009.98
2017-01-02T00:30:24.313Z,1009.96
2017-01-02T00:31:24.289Z,1009.96
2017-01-02T00:32:24.273Z,1009.94
2017-01-02T00:33:24.262Z,1009.95
2017-01-02T00:34:24.243Z,1009.92
2017-01-02T00:35:24.199Z,1009.95
2017-01-02T00:36:24.176Z,1009.95
2017-01-02T00:37:24.154Z,1009.94
2017-01-02T00:38:24.131Z,1009.97
2017-01-02T00:39:24.108Z,1009.97
2017-01-02T00:40:24.084Z,1009.94
2017-01-02T00:41:24.061Z,1009.92
2017-01-02T00:42:24.040Z,1009.88
2017-01-02T00:43:24.018Z,1009.9
2017-01-02T00:44:23.994Z,1009.91
2017-01-02T00:45:23.972Z,1009.89
2017-01-02T00:46:23.948Z,1009.88
2017-01-02T00:47:23.926Z,1009.93
2017-01-02T00:48:23.904Z,1009.92
2017-01-02T00:49:23.881Z,1009.9
2017-01-02T00:50:23.859Z,1009.93
2017-01-02T00:51:23.837Z,1009.98
2017-01-02T00:52:23.813Z,1009.93
2017-01-02T00:53:23.790Z,1009.94
2017-01-02T00:54:23.770Z,1009.89
2017-01-02T00:55:23.747Z,1009.93
2017-01-02T00:56:23.722Z,1010
2017-01-02T00:57:23.701Z,1009.98
2017-01-02T00:58:23.677Z,1009.97
2017-01-02T00:59:23.654Z,1010
2017-01-02T01:00:23.636Z,1010.02
2017-01-02T01:01:23.609Z,1010.01
2017-01-02T01:02:23.586Z,1009.93
2017-01-02T01:03:23.567Z,1010
2017-01-02T01:04:23.543Z,1009.99
2017-01-02T01:05:23.520Z,1009.99
2017-01-02T01:06:23.496Z,1009.99
2017-01-02T01:07:23.475Z,1010.01
2017-01-02T01:08:23.453Z,1010.02
2017-01-02T01:09:23.431Z,1010.04
2017-01-02T01:10:23.406Z,1010.06
2017-01-02T01:11:23.386Z,1010.03
2017-01-02T01:12:23.364Z,1010.09
2017-01-02T01:13:23.339Z,1010.07
2017-01-02T01:14:23.317Z,1010.08
2017-01-02T01:15:23.294Z,1010.08
2017-01-02T01:16:23.272Z,1010.08
2017-01-02T01:17:23.257Z,1010.09
2017-01-02T01:18:23.226Z,1010.06
2017-01-02T01:19:23.208Z,1010.07
2017-01-02T01:20:23.186Z,1010.04
2017-01-02T01:21:23.158Z,1010.07
2017-01-02T01:22:23.135Z,1010.1
2017-01-02T01:23:23.113Z,1010.11
2017-01-02T01:24:23.092Z,1010.08
2017-01-02T01:25:23.069Z,1010.12
2017-01-02T01:26:23.045Z,1010.09
2017-01-02T01:27:23.025Z,1010.14
2017-01-02T01:28:23.001Z,1010.13
2017-01-02T01:29:22.979Z,1010.11
2017-01-02T01:30:22.955Z,1010.18
2017-01-02T01:31:22.933Z,1010.14
2017-01-02T01:32:22.908Z,1010.11
2017-01-02T01:33:22.886Z,1010.07
2017-01-02T01:34:22.865Z,1010.14
2017-01-02T01:35:22.842Z,1010.14
2017-01-02T01:36:22.818Z,1010.1
2017-01-02T01:37:22.796Z,1010.16
2017-01-02T01:38:22.774Z,1010.14
2017-01-02T01:39:22.750Z,1010.18
2017-01-02T01:40:22.729Z,1010.2
2017-01-02T01:41:22.705Z,1010.21
2017-01-02T01:42:22.684Z,1010.19
2017-01-02T01:43:22.664Z,1010.17
2017-01-02T01:44:22.638Z,1010.16
2017-01-02T01:45:22.617Z,1010.16
2017-01-02T01:46:22.593Z,1010.21
2017-01-02T01:47:22.570Z,1010.27
2017-01-02T01:48:22.548Z,1010.31
2017-01-02T01:49:22.527Z,1010.27
2017-01-02T01:50:22.503Z,1010.31
2017-01-02T01:51:22.481Z,1010.33
2017-01-02T01:52:22.457Z,1010.34
2017-01-02T01:53:22.435Z,1010.33
2017-01-02T01:54:22.413Z,1010.37
2017-01-02T01:55:22.390Z,1010.36
2017-01-02T01:56:22.366Z,1010.4
2017-01-02T01:57:22.344Z,1010.4
2017-01-02T01:58:22.321Z,1010.45
2017-01-02T01:59:22.299Z,1010.41
2017-01-02T02:00:22.281Z,1010.43
2017-01-02T02:01:22.254Z,1010.43
2017-01-02T02:02:22.231Z,1010.36
2017-01-02T02:03:22.209Z,1010.43
2017-01-02T02:04:22.188Z,1010.4
2017-01-02T02:05:22.163Z,1010.41
2017-01-02T02:06:22.140Z,1010.4
2017-01-02T02:07:22.117Z,1010.42
2017-01-02T02:08:22.094Z,1010.47
2017-01-02T02:09:22.073Z,1010.43
2017-01-02T02:10:22.053Z,1010.42
2017-01-02T02:11:22.028Z,1010.49
2017-01-02T02:12:22.006Z,1010.45
2017-01-02T02:13:21.982Z,1010.47
2017-01-02T02:14:21.960Z,1010.44
2017-01-02T02:15:21.935Z,1010.4
2017-01-02T02:16:21.914Z,1010.46
2017-01-02T02:17:21.890Z,1010.44
2017-01-02T02:18:21.883Z,1010.47
2017-01-02T02:19:21.845Z,1010.48
2017-01-02T02:20:21.823Z,1010.51
2017-01-02T02:21:21.800Z,1010.51
2017-01-02T02:22:21.777Z,1010.53
2017-01-02T02:23:21.755Z,1010.55
2017-01-02T02:24:21.739Z,1010.57
2017-01-02T02:25:21.714Z,1010.57
2017-01-02T02:26:21.689Z,1010.6
2017-01-02T02:27:21.664Z,1010.63
2017-01-02T02:28:21.646Z,1010.61
2017-01-02T02:29:21.619Z,1010.64
2017-01-02T02:30:21.599Z,1010.63
2017-01-02T02:31:21.573Z,1010.63
2017-01-02T02:32:21.551Z,1010.61
2017-01-02T02:33:21.527Z,1010.64
2017-01-02T02:34:21.503Z,1010.63
2017-01-02T02:35:21.481Z,1010.59
2017-01-02T02:36:21.462Z,1010.57
2017-01-02T02:37:21.439Z,1010.54
2017-01-02T02:38:21.414Z,1010.55
2017-01-02T02:39:21.392Z,1010.57
2017-01-02T02:40:21.369Z,1010.51
2017-01-02T02:41:21.345Z,1010.49
2017-01-02T02:42:21.323Z,1010.52
2017-01-02T02:43:21.301Z,1010.49
2017-01-02T02:44:21.278Z,1010.48
2017-01-02T02:45:21.257Z,1010.49
2017-01-02T02:46:21.435Z,1010.47
2017-01-02T02:47:21.212Z,1010.46
2017-01-02T02:48:21.187Z,1010.5
2017-01-02T02:49:21.165Z,1010.5
2017-01-02T02:50:21.143Z,1010.55
2017-01-02T02:51:21.123Z,1010.5
2017-01-02T02:52:21.096Z,1010.51
2017-01-02T02:53:21.075Z,1010.5
2017-01-02T02:54:21.053Z,1010.52
2017-01-02T02:55:21.033Z,1010.46
2017-01-02T02:56:21.008Z,1010.47
2017-01-02T02:57:20.983Z,1010.49
2017-01-02T02:58:20.962Z,1010.49
2017-01-02T02:59:20.940Z,1010.52
2017-01-02T03:00:20.916Z,1010.5
2017-01-02T03:01:20.893Z,1010.48
2017-01-02T03:02:20.871Z,1010.51
2017-01-02T03:03:20.848Z,1010.48
2017-01-02T03:04:20.827Z,1010.51
2017-01-02T03:05:20.802Z,1010.48
2017-01-02T03:06:20.785Z,1010.48
2017-01-02T03:07:20.756Z,1010.47
2017-01-02T03:08:20.736Z,1010.44
2017-01-02T03:09:20.716Z,1010.43
2017-01-02T03:10:20.692Z,1010.47
2017-01-02T03:11:20.666Z,1010.44
2017-01-02T03:12:20.644Z,1010.48
2017-01-02T03:13:20.621Z,1010.44
2017-01-02T03:14:20.598Z,1010.45
2017-01-02T03:15:20.575Z,1010.44
2017-01-02T03:16:20.554Z,1010.39
2017-01-02T03:17:20.530Z,1010.38
2017-01-02T03:18:20.508Z,1010.36
2017-01-02T03:19:20.486Z,1010.38
2017-01-02T03:20:20.465Z,1010.35
2017-01-02T03:21:20.440Z,1010.31
2017-01-02T03:22:20.418Z,1010.3
2017-01-02T03:23:20.396Z,1010.29
2017-01-02T03:24:20.376Z,1010.34
2017-01-02T03:25:20.348Z,1010.43
2017-01-02T03:26:20.328Z,1010.41
2017-01-02T03:27:20.305Z,1010.42
2017-01-02T03:28:20.280Z,1010.41
2017-01-02T03:29:20.260Z,1010.47
2017-01-02T03:30:20.236Z,1010.46
2017-01-02T03:31:20.212Z,1010.42
2017-01-02T03:32:20.189Z,1010.49
2017-01-02T03:33:20.166Z,1010.49
2017-01-02T03:34:20.144Z,1010.48
2017-01-02T03:35:20.123Z,1010.5
2017-01-02T03:36:20.099Z,1010.49
2017-01-02T03:37:20.077Z,1010.48
2017-01-02T03:38:20.055Z,1010.51
2017-01-02T03:39:20.031Z,1010.52
2017-01-02T03:40:20.008Z,1010.53
2017-01-02T03:41:19.987Z,1010.55
2017-01-02T03:42:19.963Z,1010.51
2017-01-02T03:43:19.944Z,1010.51
2017-01-02T03:44:19.918Z,1010.56
2017-01-02T03:45:19.910Z,1010.55
2017-01-02T03:46:19.889Z,1010.5
2017-01-02T03:47:19.852Z,1010.5
2017-01-02T03:48:19.855Z,1010.51
2017-01-02T03:49:19.805Z,1010.46
2017-01-02T03:50:19.781Z,1010.51
2017-01-02T03:51:19.758Z,1010.49
2017-01-02T03:52:19.737Z,1010.52
2017-01-02T03:53:19.715Z,1010.51
2017-01-02T03:54:19.694Z,1010.51
2017-01-02T03:55:19.671Z,1010.54
2017-01-02T03:56:19.645Z,1010.55
2017-01-02T03:57:19.621Z,1010.51
2017-01-02T03:58:19.599Z,1010.51
2017-01-02T03:59:19.575Z,1010.54
2017-01-02T04:00:19.556Z,1010.53
2017-01-02T04:01:19.532Z,1010.55
2017-01-02T04:02:19.508Z,1010.54
2017-01-02T04:03:19.486Z,1010.51
2017-01-02T04:04:19.462Z,1010.59
2017-01-02T04:05:19.440Z,1010.62
2017-01-02T04:06:19.417Z,1010.59
2017-01-02T04:07:19.394Z,1010.64
2017-01-02T04:08:19.372Z,1010.61
2017-01-02T04:09:19.352Z,1010.61
2017-01-02T04:10:19.327Z,1010.64
2017-01-02T04:11:19.303Z,1010.6
2017-01-02T04:12:19.282Z,1010.59
2017-01-02T04:13:19.257Z,1010.62
2017-01-02T04:14:19.238Z,1010.68
2017-01-02T04:15:19.213Z,1010.66
2017-01-02T04:16:19.190Z,1010.63
2017-01-02T04:17:19.169Z,1010.62
2017-01-02T04:18:19.145Z,1010.63
2017-01-02T04:19:19.124Z,1010.7
2017-01-02T04:20:19.099Z,1010.68
2017-01-02T04:21:19.077Z,1010.68
2017-01-02T04:22:19.059Z,1010.69
2017-01-02T04:23:19.031Z,1010.63
2017-01-02T04:24:19.008Z,1010.56
2017-01-02T04:25:18.988Z,1010.54
2017-01-02T04:26:18.963Z,1010.55
2017-01-02T04:27:18.940Z,1010.55
2017-01-02T04:28:18.923Z,1010.55
2017-01-02T04:29:18.895Z,1010.55
2017-01-02T04:30:18.873Z,1010.55
2017-01-02T04:31:18.849Z,1010.56
2017-01-02T04:32:18.828Z,1010.56
2017-01-02T04:33:18.806Z,1010.54
2017-01-02T04:34:18.780Z,1010.55
2017-01-02T04:35:18.759Z,1010.54
2017-01-02T04:36:18.736Z,1010.58
2017-01-02T04:37:18.715Z,1010.6
2017-01-02T04:38:18.690Z,1010.61
2017-01-02T04:39:18.668Z,1010.59
2017-01-02T04:40:18.647Z,1010.6
2017-01-02T04:41:18.624Z,1010.61
2017-01-02T04:42:18.600Z,1010.66
2017-01-02T04:43:18.579Z,1010.61
2017-01-02T04:44:18.555Z,1010.63
2017-01-02T04:45:18.534Z,1010.62
2017-01-02T04:46:18.717Z,1010.59
2017-01-02T04:47:18.490Z,1010.63
2017-01-02T04:48:18.464Z,1010.65
2017-01-02T04:49:18.440Z,1010.6
2017-01-02T04:50:18.419Z,1010.59
2017-01-02T04:51:18.397Z,1010.57
2017-01-02T04:52:18.373Z,1010.59
2017-01-02T04:53:18.352Z,1010.56
2017-01-02T04:54:18.328Z,1010.62
2017-01-02T04:55:18.306Z,1010.62
2017-01-02T04:56:18.284Z,1010.62
2017-01-02T04:57:18.261Z,1010.6
2017-01-02T04:58:18.238Z,1010.59
2017-01-02T04:59:18.215Z,1010.61
2017-01-02T05:00:18.193Z,1010.61
2017-01-02T05:01:18.219Z,1010.59
2017-01-02T05:02:18.147Z,1010.59
2017-01-02T05:03:18.125Z,1010.61
2017-01-02T05:04:18.102Z,1010.61
2017-01-02T05:05:18.081Z,1010.62
2017-01-02T05:06:18.057Z,1010.6
2017-01-02T05:07:18.033Z,1010.59
2017-01-02T05:08:18.012Z,1010.59
2017-01-02T05:09:17.989Z,1010.53
2017-01-02T05:10:17.965Z,1010.47
2017-01-02T05:11:17.942Z,1010.47
2017-01-02T05:12:17.921Z,1010.44
2017-01-02T05:13:17.899Z,1010.48
2017-01-02T05:14:17.874Z,1010.48
2017-01-02T05:15:17.852Z,1010.48
2017-01-02T05:16:17.830Z,1010.54
2017-01-02T05:17:17.806Z,1010.59
2017-01-02T05:18:17.782Z,1010.62
2017-01-02T05:19:17.763Z,1010.6
2017-01-02T05:20:17.739Z,1010.6
2017-01-02T05:21:17.717Z,1010.59
2017-01-02T05:22:17.694Z,1010.6
2017-01-02T05:23:17.671Z,1010.59
2017-01-02T05:24:17.648Z,1010.6
2017-01-02T05:25:17.624Z,1010.61
2017-01-02T05:26:17.601Z,1010.6
2017-01-02T05:27:17.581Z,1010.59
2017-01-02T05:28:17.558Z,1010.66
2017-01-02T05:29:17.535Z,1010.63
2017-01-02T05:30:17.511Z,1010.67
2017-01-02T05:31:17.490Z,1010.66
2017-01-02T05:32:17.466Z,1010.74
2017-01-02T05:33:17.445Z,1010.66
2017-01-02T05:34:17.420Z,1010.64
2017-01-02T05:35:17.399Z,1010.68
2017-01-02T05:36:17.375Z,1010.64
2017-01-02T05:37:17.352Z,1010.68
2017-01-02T05:38:17.332Z,1010.64
2017-01-02T05:39:17.309Z,1010.66
2017-01-02T05:40:17.289Z,1010.66
2017-01-02T05:41:17.264Z,1010.65
2017-01-02T05:42:17.241Z,1010.72
2017-01-02T05:43:17.218Z,1010.69
2017-01-02T05:44:17.196Z,1010.69
2017-01-02T05:45:17.172Z,1010.73
2017-01-02T05:46:17.149Z,1010.69
2017-01-02T05:47:17.126Z,1010.66
2017-01-02T05:48:17.104Z,1010.66
2017-01-02T05:49:17.084Z,1010.67
2017-01-02T05:50:17.061Z,1010.61
2017-01-02T05:51:17.036Z,1010.67
2017-01-02T05:52:17.015Z,1010.66
2017-01-02T05:53:16.995Z,1010.67
2017-01-02T05:54:16.969Z,1010.71
2017-01-02T05:55:16.946Z,1010.69
2017-01-02T05:56:16.925Z,1010.76
2017-01-02T05:57:16.903Z,1010.75
2017-01-02T05:58:16.880Z,1010.71
2017-01-02T05:59:16.857Z,1010.72
2017-01-02T06:00:16.836Z,1010.72
2017-01-02T06:01:16.812Z,1010.68
2017-01-02T06:02:16.789Z,1010.72
2017-01-02T06:03:16.766Z,1010.73
2017-01-02T06:04:16.744Z,1010.74
2017-01-02T06:05:16.722Z,1010.69
2017-01-02T06:06:16.700Z,1010.7
2017-01-02T06:07:16.678Z,1010.71
2017-01-02T06:08:16.655Z,1010.67
2017-01-02T06:09:16.633Z,1010.67
2017-01-02T06:10:16.611Z,1010.7
2017-01-02T06:11:16.589Z,1010.78
2017-01-02T06:12:16.567Z,1010.77
2017-01-02T06:13:16.544Z,1010.76
2017-01-02T06:14:16.520Z,1010.79
2017-01-02T06:15:16.498Z,1010.77
2017-01-02T06:16:16.477Z,1010.75
2017-01-02T06:17:16.456Z,1010.79
2017-01-02T06:18:16.432Z,1010.8
2017-01-02T06:19:16.410Z,1010.8
2017-01-02T06:20:16.386Z,1010.77
2017-01-02T06:21:16.364Z,1010.78
2017-01-02T06:22:16.341Z,1010.83
2017-01-02T06:23:16.320Z,1010.82
2017-01-02T06:24:16.298Z,1010.88
2017-01-02T06:25:16.277Z,1010.92
2017-01-02T06:26:16.253Z,1010.88
2017-01-02T06:27:16.230Z,1010.9
2017-01-02T06:28:16.210Z,1010.92
2017-01-02T06:29:16.187Z,1010.92
2017-01-02T06:30:16.164Z,1010.95
2017-01-02T06:31:16.146Z,1011
2017-01-02T06:32:16.119Z,1011.08
2017-01-02T06:33:16.101Z,1011.04
2017-01-02T06:34:16.074Z,1011.02
2017-01-02T06:35:16.052Z,1011
2017-01-02T06:36:16.029Z,1011
2017-01-02T06:37:16.008Z,1010.92
2017-01-02T06:38:15.985Z,1010.95
2017-01-02T06:39:15.963Z,1010.97
2017-01-02T06:40:15.941Z,1010.89
2017-01-02T06:41:15.918Z,1010.9
2017-01-02T06:42:15.895Z,1010.91
2017-01-02T06:43:15.874Z,1010.89
2017-01-02T06:44:15.861Z,1010.88
2017-01-02T06:45:15.830Z,1010.9
2017-01-02T06:46:16.009Z,1010.86
2017-01-02T06:47:15.789Z,1010.85
2017-01-02T06:48:15.764Z,1010.79
2017-01-02T06:49:15.745Z,1010.84
2017-01-02T06:50:15.723Z,1010.89
2017-01-02T06:51:15.697Z,1010.87
2017-01-02T06:52:15.674Z,1010.85
2017-01-02T06:53:15.655Z,1010.81
2017-01-02T06:54:15.637Z,1010.76
2017-01-02T06:55:15.657Z,1010.84
2017-01-02T06:56:15.596Z,1010.82
2017-01-02T06:57:15.577Z,1010.84
2017-01-02T06:58:15.564Z,1010.84
2017-01-02T06:59:15.521Z,1010.86
2017-01-02T07:00:15.493Z,1010.88
2017-01-02T07:01:15.482Z,1010.93
2017-01-02T07:02:15.449Z,1010.9
2017-01-02T07:03:15.451Z,1010.9
2017-01-02T07:04:15.405Z,1010.97
2017-01-02T07:05:15.382Z,1010.95
2017-01-02T07:06:15.362Z,1010.99
2017-01-02T07:07:15.341Z,1011
2017-01-02T07:08:15.316Z,1011.02
2017-01-02T07:09:15.295Z,1011.07
2017-01-02T07:10:15.271Z,1011.04
2017-01-02T07:11:15.248Z,1011.08
2017-01-02T07:12:15.226Z,1011.08
2017-01-02T07:13:15.210Z,1011.13
2017-01-02T07:14:15.184Z,1011.14
2017-01-02T07:15:15.160Z,1011.19
2017-01-02T07:16:15.138Z,1011.22
2017-01-02T07:17:15.116Z,1011.2
2017-01-02T07:18:15.094Z,1011.23
2017-01-02T07:19:15.070Z,1011.28
2017-01-02T07:20:15.049Z,1011.23
2017-01-02T07:21:15.029Z,1011.31
2017-01-02T07:22:15.003Z,1011.34
2017-01-02T07:23:14.981Z,1011.42
2017-01-02T07:24:14.962Z,1011.43
2017-01-02T07:25:14.939Z,1011.4
2017-01-02T07:26:14.916Z,1011.43
2017-01-02T07:27:14.892Z,1011.42
2017-01-02T07:28:14.870Z,1011.38
2017-01-02T07:29:14.849Z,1011.41
2017-01-02T07:30:14.826Z,1011.46
2017-01-02T07:31:14.803Z,1011.5
2017-01-02T07:32:14.782Z,1011.56
2017-01-02T07:33:14.759Z,1011.55
2017-01-02T07:34:14.740Z,1011.55
2017-01-02T07:35:14.720Z,1011.5
2017-01-02T07:36:14.693Z,1011.51
2017-01-02T07:37:14.670Z,1011.54
2017-01-02T07:38:14.647Z,1011.5
2017-01-02T07:39:14.626Z,1011.51
2017-01-02T07:40:14.603Z,1011.59
2017-01-02T07:41:14.581Z,1011.62
2017-01-02T07:42:14.560Z,1011.64
2017-01-02T07:43:14.536Z,1011.63
2017-01-02T07:44:14.513Z,1011.62
2017-01-02T07:45:14.492Z,1011.67
2017-01-02T07:46:14.470Z,1011.63
2017-01-02T07:47:14.447Z,1011.65
2017-01-02T07:48:14.425Z,1011.68
2017-01-02T07:49:14.404Z,1011.67
2017-01-02T07:50:14.382Z,1011.62
2017-01-02T07:51:14.358Z,1011.69
2017-01-02T07:52:14.339Z,1011.68
2017-01-02T07:53:14.316Z,1011.71
2017-01-02T07:54:14.292Z,1011.7
2017-01-02T07:55:14.269Z,1011.73
2017-01-02T07:56:14.246Z,1011.72
2017-01-02T07:57:14.225Z,1011.73
2017-01-02T07:58:14.202Z,1011.75
2017-01-02T07:59:14.179Z,1011.76
2017-01-02T08:00:14.158Z,1011.78
2017-01-02T08:01:14.136Z,1011.86
2017-01-02T08:02:14.113Z,1011.84
2017-01-02T08:03:14.092Z,1011.77
2017-01-02T08:04:14.072Z,1011.76
2017-01-02T08:05:14.047Z,1011.79
2017-01-02T08:06:14.025Z,1011.83
2017-01-02T08:07:14.002Z,1011.87
2017-01-02T08:08:13.982Z,1011.93
2017-01-02T08:09:13.958Z,1011.94
2017-01-02T08:10:13.936Z,1012.01
2017-01-02T08:11:13.913Z,1011.95
2017-01-02T08:12:13.891Z,1011.96
2017-01-02T08:13:13.870Z,1011.9
2017-01-02T08:14:13.847Z,1011.96
2017-01-02T08:15:13.825Z,1011.94
2017-01-02T08:16:13.803Z,1011.93
2017-01-02T08:17:13.780Z,1011.95
2017-01-02T08:18:13.758Z,1011.93
2017-01-02T08:19:13.735Z,1011.95
2017-01-02T08:20:13.715Z,1011.91
2017-01-02T08:21:13.690Z,1011.94
2017-01-02T08:22:13.670Z,1011.95
2017-01-02T08:23:13.648Z,1011.96
2017-01-02T08:24:13.626Z,1011.96
2017-01-02T08:25:13.603Z,1011.96
2017-01-02T08:26:13.580Z,1012
2017-01-02T08:27:13.559Z,1011.96
2017-01-02T08:28:13.535Z,1011.99
2017-01-02T08:29:13.513Z,1012.02
2017-01-02T08:30:13.492Z,1012.06
2017-01-02T08:31:13.470Z,1012.01
2017-01-02T08:32:13.449Z,1012.03
2017-01-02T08:33:13.428Z,1012
2017-01-02T08:34:13.403Z,1012.03
2017-01-02T08:35:13.381Z,1012.06
2017-01-02T08:36:13.361Z,1012.05
2017-01-02T08:37:13.341Z,1012.08
2017-01-02T08:38:13.315Z,1012.07
2017-01-02T08:39:13.292Z,1012.05
2017-01-02T08:40:13.271Z,1012.1
2017-01-02T08:41:13.252Z,1012.21
2017-01-02T08:42:13.228Z,1012.2
2017-01-02T08:43:13.204Z,1012.22
2017-01-02T08:44:13.183Z,1012.18
2017-01-02T08:45:13.162Z,1012.23
2017-01-02T08:46:13.490Z,1012.21
2017-01-02T08:47:13.119Z,1012.25
2017-01-02T08:48:13.096Z,1012.25
2017-01-02T08:49:13.073Z,1012.26
2017-01-02T08:50:13.051Z,1012.24
2017-01-02T08:51:13.029Z,1012.22
2017-01-02T08:52:13.009Z,1012.25
2017-01-02T08:53:12.987Z,1012.28
2017-01-02T08:54:12.963Z,1012.25
2017-01-02T08:55:12.942Z,1012.22
2017-01-02T08:56:12.921Z,1012.16
2017-01-02T08:57:12.899Z,1012.21
2017-01-02T08:58:12.876Z,1012.19
2017-01-02T08:59:12.855Z,1012.17
2017-01-02T09:00:12.834Z,1012.15
2017-01-02T09:01:12.813Z,1012.17
2017-01-02T09:02:12.790Z,1012.17
2017-01-02T09:03:12.771Z,1012.2
2017-01-02T09:04:12.750Z,1012.16
2017-01-02T09:05:12.727Z,1012.08
2017-01-02T09:06:12.705Z,1012.15
2017-01-02T09:07:12.686Z,1012.12
2017-01-02T09:08:12.662Z,1012.06
2017-01-02T09:09:12.642Z,1012.1
2017-01-02T09:10:12.621Z,1012.08
2017-01-02T09:11:12.601Z,1012.11
2017-01-02T09:12:12.578Z,1012.12
2017-01-02T09:13:12.558Z,1012.09
2017-01-02T09:14:12.539Z,1012.09
2017-01-02T09:15:12.517Z,1012.08
2017-01-02T09:16:12.495Z,1012.11
2017-01-02T09:17:12.474Z,1012.11
2017-01-02T09:18:12.455Z,1012.13
2017-01-02T09:19:12.433Z,1012.13
2017-01-02T09:20:12.762Z,1012.16
2017-01-02T09:21:12.393Z,1012.2
2017-01-02T09:22:12.379Z,1012.22
2017-01-02T09:23:12.358Z,1012.24
2017-01-02T09:24:12.332Z,1012.24
2017-01-02T09:25:12.311Z,1012.17
2017-01-02T09:26:12.292Z,1012.19
2017-01-02T09:27:12.271Z,1012.17
2017-01-02T09:28:12.250Z,1012.26
2017-01-02T09:29:12.230Z,1012.2
2017-01-02T09:30:12.208Z,1012.2
2017-01-02T09:31:12.186Z,1012.18
2017-01-02T09:32:12.166Z,1012.17
2017-01-02T09:33:12.147Z,1012.19
2017-01-02T09:34:12.125Z,1012.17
2017-01-02T09:35:12.106Z,1012.16
2017-01-02T09:36:12.088Z,1012.17
2017-01-02T09:37:12.066Z,1012.18
2017-01-02T09:38:12.047Z,1012.21
2017-01-02T09:39:12.026Z,1012.27
2017-01-02T09:40:12.007Z,1012.24
2017-01-02T09:41:11.986Z,1012.14
2017-01-02T09:42:11.968Z,1012.16
2017-01-02T09:43:11.947Z,1012.15
2017-01-02T09:44:11.928Z,1012.12
2017-01-02T09:45:11.912Z,1012.2
2017-01-02T09:46:11.888Z,1012.24
2017-01-02T09:47:11.866Z,1012.29
2017-01-02T09:48:11.846Z,1012.23
2017-01-02T09:49:11.824Z,1012.21
2017-01-02T09:50:11.815Z,1012.18
2017-01-02T09:51:11.785Z,1012.26
2017-01-02T09:52:11.766Z,1012.24
2017-01-02T09:53:11.747Z,1012.22
2017-01-02T09:54:11.725Z,1012.29
2017-01-02T09:55:11.705Z,1012.3
2017-01-02T09:56:11.683Z,1012.27
2017-01-02T09:57:11.662Z,1012.29
2017-01-02T09:58:11.643Z,1012.28
2017-01-02T09:59:11.623Z,1012.25
2017-01-02T10:00:11.604Z,1012.25
2017-01-02T10:01:11.582Z,1012.28
2017-01-02T10:02:11.563Z,1012.29
2017-01-02T10:03:11.594Z,1012.28
2017-01-02T10:04:11.521Z,1012.24
2017-01-02T10:05:11.504Z,1012.29
2017-01-02T10:06:11.483Z,1012.28
2017-01-02T10:07:11.474Z,1012.25
2017-01-02T10:08:11.442Z,1012.25
2017-01-02T10:09:11.420Z,1012.26
2017-01-02T10:10:11.399Z,1012.24
2017-01-02T10:11:11.380Z,1012.33
2017-01-02T10:12:11.361Z,1012.3
2017-01-02T10:13:11.341Z,1012.29
2017-01-02T10:14:11.318Z,1012.29
2017-01-02T10:15:11.304Z,1012.3
2017-01-02T10:16:11.278Z,1012.26
2017-01-02T10:17:11.259Z,1012.29
2017-01-02T10:18:11.238Z,1012.28
2017-01-02T10:19:11.218Z,1012.24
2017-01-02T10:20:11.210Z,1012.29
2017-01-02T10:21:11.177Z,1012.28
2017-01-02T10:22:11.157Z,1012.31
2017-01-02T10:23:11.138Z,1012.27
2017-01-02T10:24:11.116Z,1012.27
2017-01-02T10:25:11.097Z,1012.26
2017-01-02T10:26:11.075Z,1012.24
2017-01-02T10:27:11.057Z,1012.25
2017-01-02T10:28:11.036Z,1012.25
2017-01-02T10:29:11.066Z,1012.23
2017-01-02T10:30:10.993Z,1012.21
2017-01-02T10:31:10.974Z,1012.17
2017-01-02T10:32:10.955Z,1012.22
2017-01-02T10:33:10.933Z,1012.2
2017-01-02T10:34:10.912Z,1012.2
2017-01-02T10:35:10.893Z,1012.23
2017-01-02T10:36:10.871Z,1012.28
2017-01-02T10:37:10.856Z,1012.26
2017-01-02T10:38:10.831Z,1012.33
2017-01-02T10:39:10.814Z,1012.28
2017-01-02T10:40:10.932Z,1012.3
2017-01-02T10:41:10.771Z,1012.28
2017-01-02T10:42:10.751Z,1012.3
2017-01-02T10:43:10.729Z,1012.32
2017-01-02T10:44:10.710Z,1012.28
2017-01-02T10:45:10.690Z,1012.29
2017-01-02T10:46:10.871Z,1012.31
2017-01-02T10:47:10.649Z,1012.25
2017-01-02T10:48:10.633Z,1012.24
2017-01-02T10:49:10.611Z,1012.27
2017-01-02T10:50:10.587Z,1012.24
2017-01-02T10:51:10.568Z,1012.16
2017-01-02T10:52:10.546Z,1012.15
2017-01-02T10:53:10.527Z,1012.2
2017-01-02T10:54:10.506Z,1012.16
2017-01-02T10:55:10.486Z,1012.16
2017-01-02T10:56:10.466Z,1012.25
2017-01-02T10:57:10.445Z,1012.17
2017-01-02T10:58:10.425Z,1012.19
2017-01-02T10:59:10.407Z,1012.12
2017-01-02T11:00:10.384Z,1012.2
2017-01-02T11:01:10.363Z,1012.18
2017-01-02T11:02:10.344Z,1012.21
2017-01-02T11:03:10.326Z,1012.2
2017-01-02T11:04:10.303Z,1012.28
2017-01-02T11:05:10.282Z,1012.25
2017-01-02T11:06:10.262Z,1012.37
2017-01-02T11:07:10.243Z,1012.36
2017-01-02T11:08:10.224Z,1012.34
2017-01-02T11:09:10.204Z,1012.36
2017-01-02T11:10:10.186Z,1012.36
2017-01-02T11:11:10.165Z,1012.31
2017-01-02T11:12:10.146Z,1012.34
2017-01-02T11:13:10.136Z,1012.36
2017-01-02T11:14:10.109Z,1012.37
2017-01-02T11:15:10.094Z,1012.39
2017-01-02T11:16:10.073Z,1012.36
2017-01-02T11:17:10.052Z,1012.37
2017-01-02T11:18:10.056Z,1012.36
2017-01-02T11:19:10.015Z,1012.47
2017-01-02T11:20:10.001Z,1012.46
2017-01-02T11:21:09.982Z,1012.38
2017-01-02T11:22:09.964Z,1012.42
2017-01-02T11:23:09.944Z,1012.4
2017-01-02T11:24:09.927Z,1012.4
2017-01-02T11:25:09.909Z,1012.36
2017-01-02T11:26:09.892Z,1012.39
2017-01-02T11:27:09.876Z,1012.43
2017-01-02T11:28:09.867Z,1012.47
2017-01-02T11:29:09.847Z,1012.5
2017-01-02T11:30:09.832Z,1012.51
2017-01-02T11:31:09.807Z,1012.49
2017-01-02T11:32:09.790Z,1012.51
2017-01-02T11:33:09.775Z,1012.5
2017-01-02T11:34:09.753Z,1012.5
2017-01-02T11:35:09.737Z,1012.48
2017-01-02T11:36:09.719Z,1012.55
2017-01-02T11:37:09.703Z,1012.54
2017-01-02T11:38:09.688Z,1012.53
2017-01-02T11:39:09.668Z,1012.55
2017-01-02T11:40:09.650Z,1012.53
2017-01-02T11:41:09.634Z,1012.56
2017-01-02T11:42:09.615Z,1012.54
2017-01-02T11:43:09.599Z,1012.52
2017-01-02T11:44:09.582Z,1012.57
2017-01-02T11:45:09.564Z,1012.56
2017-01-02T11:46:09.550Z,1012.55
2017-01-02T11:47:09.530Z,1012.55
2017-01-02T11:48:09.513Z,1012.58
2017-01-02T11:49:09.500Z,1012.57
2017-01-02T11:50:09.491Z,1012.56
2017-01-02T11:51:09.460Z,1012.56
2017-01-02T11:52:09.443Z,1012.58
2017-01-02T11:53:09.429Z,1012.56
2017-01-02T11:54:09.408Z,1012.6
2017-01-02T11:55:09.391Z,1012.58
2017-01-02T11:56:09.374Z,1012.58
2017-01-02T11:57:09.357Z,1012.6
2017-01-02T11:58:09.340Z,1012.58
2017-01-02T11:59:09.326Z,1012.59
2017-01-02T12:00:09.303Z,1012.64
2017-01-02T12:01:09.284Z,1012.65
2017-01-02T12:02:09.270Z,1012.7
2017-01-02T12:03:09.251Z,1012.68
2017-01-02T12:04:09.232Z,1012.73
2017-01-02T12:05:09.216Z,1012.71
2017-01-02T12:06:09.197Z,1012.75
2017-01-02T12:07:09.178Z,1012.76
2017-01-02T12:08:09.164Z,1012.75